Time;durP1;ratioP1;P1;durP2;ratioP2;P2;SDS_P1;SDS_P2;PMS_P1;PMS_P2;Temp;Humidity;BMP_temperature;BMP_pressure;BME280_temperature;BME280_humidity;BME280_pressure;Samples;Min_cycle;Max_cycle;Signal;HPM_P1;HPM_P2
2021/12/06 00:00:14;;;;;;;41.63;15.40;;;;;;;-145.18;100.00;60484.78;5057773;28;20312;-68
2021/12/06 00:02:40;;;;;;;44.13;14.60;;;;;;;-145.18;100.00;60484.78;5053279;28;20222;-68
2021/12/06 00:05:07;;;;;;;52.70;14.67;;;;;;;-145.18;100.00;60484.78;5049192;28;20771;-68
2021/12/06 00:07:33;;;;;;;53.27;15.47;;;;;;;-145.18;100.00;60484.78;5051655;28;20024;-68
2021/12/06 00:09:58;;;;;;;52.30;15.73;;;;;;;-145.18;100.00;60484.78;5059300;28;20942;-68
2021/12/06 00:12:24;;;;;;;46.40;14.20;;;;;;;-145.18;100.00;60484.78;5056814;28;20059;-68
2021/12/06 00:14:49;;;;;;;53.50;15.73;;;;;;;-145.18;100.00;60484.78;5052593;28;20252;-68
2021/12/06 00:17:16;;;;;;;53.60;15.87;;;;;;;-145.18;100.00;60484.78;5059145;28;20152;-68
2021/12/06 00:19:43;;;;;;;44.50;13.63;;;;;;;-145.18;100.00;60484.78;5051023;28;20386;-68
2021/12/06 00:22:12;;;;;;;44.93;15.67;;;;;;;-145.18;100.00;60484.78;5055503;28;20259;-68
2021/12/06 00:24:38;;;;;;;51.43;14.17;;;;;;;-145.18;100.00;60484.78;5052254;28;20283;-68
2021/12/06 00:27:03;;;;;;;66.80;16.87;;;;;;;-145.18;100.00;60484.78;5055179;28;20366;-68
2021/12/06 00:29:29;;;;;;;50.27;15.43;;;;;;;-145.18;100.00;60484.78;5051059;28;20036;-68
2021/12/06 00:31:54;;;;;;;50.47;16.17;;;;;;;-145.18;100.00;60484.78;5054427;28;20032;-68
2021/12/06 00:34:21;;;;;;;66.40;16.83;;;;;;;-145.18;100.00;60484.78;5055537;28;20016;-68
2021/12/06 00:37:05;;;;;;;56.93;16.87;;;;;;;-145.18;100.00;60484.78;5050646;28;20033;-68
2021/12/06 00:39:32;;;;;;;56.03;16.47;;;;;;;-145.18;100.00;60484.78;5044510;28;20258;-68
2021/12/06 00:41:57;;;;;;;53.43;15.60;;;;;;;-145.18;100.00;60484.78;5056014;28;20654;-68
2021/12/06 00:44:23;;;;;;;49.97;16.73;;;;;;;-145.18;100.00;60484.78;5052599;28;20279;-68
2021/12/06 00:46:48;;;;;;;53.67;14.57;;;;;;;-145.18;100.00;60484.78;5055518;28;20040;-68
2021/12/06 00:49:14;;;;;;;49.33;15.53;;;;;;;-145.18;100.00;60484.78;5056947;28;20108;-68
2021/12/06 00:51:40;;;;;;;55.07;15.90;;;;;;;-145.18;100.00;60484.78;5052787;28;20043;-68
2021/12/06 00:54:07;;;;;;;57.87;17.77;;;;;;;-145.18;100.00;60484.78;5043929;28;20027;-68
2021/12/06 00:56:33;;;;;;;52.93;15.93;;;;;;;-145.18;100.00;60484.78;5055059;28;20768;-68
2021/12/06 00:58:58;;;;;;;55.90;16.43;;;;;;;-145.18;100.00;60484.78;5048262;28;20275;-68
2021/12/06 01:01:24;;;;;;;43.63;13.83;;;;;;;-145.18;100.00;60484.78;5054064;28;20526;-68
2021/12/06 01:03:49;;;;;;;51.83;15.70;;;;;;;-145.18;100.00;60484.78;5056681;28;20410;-69
2021/12/06 01:06:15;;;;;;;51.63;16.53;;;;;;;-145.18;100.00;60484.78;5056678;28;20020;-68
2021/12/06 01:08:41;;;;;;;54.33;15.70;;;;;;;-145.18;100.00;60484.78;5055095;28;20028;-68
2021/12/06 01:11:08;;;;;;;53.67;15.63;;;;;;;-145.18;100.00;60484.78;5052383;28;20028;-68
2021/12/06 01:13:35;;;;;;;52.33;16.57;;;;;;;-145.18;100.00;60484.78;5047895;28;20481;-68
2021/12/06 01:16:01;;;;;;;50.77;16.03;;;;;;;-145.18;100.00;60484.78;5053782;28;20270;-68
2021/12/06 01:18:26;;;;;;;53.43;16.03;;;;;;;-145.18;100.00;60484.78;5044800;28;20599;-68
2021/12/06 01:21:01;;;;;;;52.13;18.20;;;;;;;-145.18;100.00;60484.78;5056447;28;20059;-68
2021/12/06 01:23:32;;;;;;;49.27;16.17;;;;;;;-145.18;100.00;60484.78;5053974;28;20474;-68
2021/12/06 01:31:37;;;;;;;48.53;17.27;;;;;;;-145.18;100.00;60484.78;5053707;28;20258;-68
2021/12/06 01:39:18;;;;;;;52.77;16.07;;;;;;;-145.18;100.00;60484.78;5055513;28;20163;-68
2021/12/06 01:41:56;;;;;;;45.07;15.23;;;;;;;-145.18;100.00;60484.78;5053863;28;20269;-68
2021/12/06 01:44:44;;;;;;;48.40;16.07;;;;;;;-145.18;100.00;60484.78;5055322;28;20357;-68
2021/12/06 01:47:31;;;;;;;54.67;17.50;;;;;;;-145.18;100.00;60484.78;5050707;28;20287;-68
2021/12/06 01:50:00;;;;;;;46.10;15.13;;;;;;;-145.18;100.00;60484.78;5050709;28;20335;-68
2021/12/06 01:52:28;;;;;;;46.70;16.27;;;;;;;-145.18;100.00;60484.78;5046481;28;20275;-68
2021/12/06 01:54:55;;;;;;;48.50;17.07;;;;;;;-145.18;100.00;60484.78;5057418;28;20546;-68
2021/12/06 01:57:22;;;;;;;45.53;15.77;;;;;;;-145.18;100.00;60484.78;5054904;28;20279;-68
2021/12/06 01:59:48;;;;;;;30.13;10.73;;;;;;;-145.18;100.00;60484.78;5047343;28;20332;-69
2021/12/06 02:02:15;;;;;;;37.73;12.40;;;;;;;-145.18;100.00;60484.78;5060785;22;20319;-69
2021/12/06 02:04:42;;;;;;;45.13;16.47;;;;;;;-145.18;100.00;60484.78;5056044;28;20301;-69
2021/12/06 02:07:13;;;;;;;42.53;15.27;;;;;;;-145.18;100.00;60484.78;5055562;28;20274;-69
2021/12/06 02:09:39;;;;;;;39.80;14.13;;;;;;;-145.18;100.00;60484.78;5050452;28;20278;-69
2021/12/06 02:12:05;;;;;;;46.40;14.77;;;;;;;-145.18;100.00;60484.78;5054150;28;20279;-69
2021/12/06 02:14:50;;;;;;;39.40;13.17;;;;;;;-145.18;100.00;60484.78;5049585;28;20036;-69
2021/12/06 02:17:24;;;;;;;42.30;14.17;;;;;;;-145.18;100.00;60484.78;5045885;28;20063;-69
2021/12/06 02:19:56;;;;;;;45.03;15.57;;;;;;;-145.18;100.00;60484.78;5053067;28;20279;-69
2021/12/06 02:22:25;;;;;;;37.20;12.45;;;;;;;-145.18;100.00;60484.78;5049559;28;20310;-69
2021/12/06 02:24:53;;;;;;;40.40;14.63;;;;;;;-145.18;100.00;60484.78;5052398;28;20107;-69
2021/12/06 02:27:21;;;;;;;45.40;15.20;;;;;;;-145.18;100.00;60484.78;5052441;28;20277;-69
2021/12/06 02:29:49;;;;;;;38.70;14.43;;;;;;;-145.18;100.00;60484.78;5054981;28;20869;-69
2021/12/06 02:32:15;;;;;;;34.47;12.40;;;;;;;-145.18;100.00;60484.78;5051650;28;20267;-69
2021/12/06 02:34:46;;;;;;;34.17;12.83;;;;;;;-145.18;100.00;60484.78;5051478;28;20380;-69
2021/12/06 02:37:13;;;;;;;32.97;12.30;;;;;;;-145.18;100.00;60484.78;5046151;28;20670;-69
2021/12/06 02:39:39;;;;;;;43.80;14.10;;;;;;;-145.18;100.00;60484.78;5048255;28;20833;-69
2021/12/06 02:42:09;;;;;;;34.47;12.70;;;;;;;-145.18;100.00;60484.78;5053383;28;20362;-69
2021/12/06 02:44:35;;;;;;;35.10;13.23;;;;;;;-145.18;100.00;60484.78;5054582;28;20017;-69
2021/12/06 02:47:00;;;;;;;32.77;12.43;;;;;;;-145.18;100.00;60484.78;5054159;28;20285;-69
2021/12/06 02:49:26;;;;;;;36.03;12.10;;;;;;;-145.18;100.00;60484.78;5051791;28;20279;-69
2021/12/06 02:51:52;;;;;;;40.70;15.00;;;;;;;-145.18;100.00;60484.78;5057048;28;20103;-69
2021/12/06 02:54:23;;;;;;;35.63;13.20;;;;;;;-145.18;100.00;60484.78;5053283;28;20095;-69
2021/12/06 02:56:56;;;;;;;40.37;12.93;;;;;;;-145.18;100.00;60484.78;5046408;28;20102;-69
2021/12/06 02:59:25;;;;;;;;;;;;;;;-145.18;100.00;60484.78;5059475;28;20274;-69
2021/12/06 03:01:58;;;;;;;37.07;13.53;;;;;;;-145.18;100.00;60484.78;5057805;28;20529;-69
2021/12/06 03:04:24;;;;;;;33.00;11.57;;;;;;;-145.18;100.00;60484.78;5049444;28;20291;-69
2021/12/06 03:06:54;;;;;;;28.27;10.63;;;;;;;-145.18;100.00;60484.78;5052189;28;20271;-69
2021/12/06 03:09:23;;;;;;;34.50;12.60;;;;;;;-145.18;100.00;60484.78;5049662;28;20628;-69
2021/12/06 03:11:55;;;;;;;36.03;13.97;;;;;;;-145.18;100.00;60484.78;5047525;28;20271;-69
2021/12/06 03:14:30;;;;;;;39.10;13.87;;;;;;;-145.18;100.00;60484.78;5050990;28;20262;-69
2021/12/06 03:16:59;;;;;;;38.37;14.43;;;;;;;-145.18;100.00;60484.78;5060155;28;20643;-69
2021/12/06 03:19:24;;;;;;;39.43;13.60;;;;;;;-145.18;100.00;60484.78;5059121;28;20266;-69
2021/12/06 03:21:50;;;;;;;36.43;11.87;;;;;;;-145.18;100.00;60484.78;5060073;28;20792;-69
2021/12/06 03:24:16;;;;;;;36.57;13.20;;;;;;;-145.18;100.00;60484.78;5057248;28;20134;-69
2021/12/06 03:26:42;;;;;;;39.30;14.07;;;;;;;-145.18;100.00;60484.78;5061607;28;20733;-69
2021/12/06 03:29:08;;;;;;;41.60;12.40;;;;;;;-145.18;100.00;60484.78;5058404;28;20029;-69
2021/12/06 03:31:35;;;;;;;39.30;14.40;;;;;;;-145.18;100.00;60484.78;5055223;28;20093;-69
2021/12/06 03:34:00;;;;;;;39.30;14.07;;;;;;;-145.18;100.00;60484.78;5059031;28;20020;-69
2021/12/06 03:36:28;;;;;;;34.10;12.27;;;;;;;-145.18;100.00;60484.78;5054386;28;20320;-69
2021/12/06 03:38:56;;;;;;;37.33;13.40;;;;;;;-145.18;100.00;60484.78;5055240;28;20126;-69
2021/12/06 03:41:23;;;;;;;36.20;14.13;;;;;;;-145.18;100.00;60484.78;5060992;28;20267;-69
2021/12/06 03:43:50;;;;;;;36.10;13.57;;;;;;;-145.18;100.00;60484.78;5061211;28;20400;-69
2021/12/06 03:46:19;;;;;;;36.53;13.40;;;;;;;-145.18;100.00;60484.78;5053269;28;20869;-69
2021/12/06 03:48:45;;;;;;;35.63;13.37;;;;;;;-145.18;100.00;60484.78;5057811;28;20266;-69
2021/12/06 03:51:11;;;;;;;39.03;13.47;;;;;;;-145.18;100.00;60484.78;5054328;28;20306;-69
2021/12/06 03:53:38;;;;;;;35.43;13.33;;;;;;;-145.18;100.00;60484.78;5053271;28;20267;-69
2021/12/06 03:56:04;;;;;;;39.80;13.70;;;;;;;-145.18;100.00;60484.78;5053092;28;20290;-69
2021/12/06 03:58:30;;;;;;;37.73;13.97;;;;;;;-145.18;100.00;60484.78;5056871;28;20809;-69
2021/12/06 04:00:55;;;;;;;40.90;14.63;;;;;;;-145.18;100.00;60484.78;5061776;28;20048;-66
2021/12/06 04:03:24;;;;;;;38.30;13.27;;;;;;;-145.18;100.00;60484.78;5059982;28;20048;-66
2021/12/06 04:05:50;;;;;;;34.77;12.57;;;;;;;-145.18;100.00;60484.78;5058291;28;20021;-66
2021/12/06 04:08:15;;;;;;;40.30;14.03;;;;;;;-145.18;100.00;60484.78;5059770;28;20267;-66
2021/12/06 04:10:42;;;;;;;37.97;13.40;;;;;;;-145.18;100.00;60484.78;5060715;28;20778;-66
2021/12/06 04:13:08;;;;;;;34.50;13.13;;;;;;;-145.18;100.00;60484.78;5057407;28;20043;-66
2021/12/06 04:15:35;;;;;;;37.30;13.33;;;;;;;-145.18;100.00;60484.78;5059451;28;20517;-66
2021/12/06 04:18:01;;;;;;;37.33;13.20;;;;;;;-145.18;100.00;60484.78;5057923;28;20279;-66
2021/12/06 04:20:27;;;;;;;39.53;13.57;;;;;;;-145.18;100.00;60484.78;5056976;28;20298;-66
2021/12/06 04:22:54;;;;;;;41.73;13.77;;;;;;;-145.18;100.00;60484.78;5060226;28;20608;-66
2021/12/06 04:25:20;;;;;;;40.03;13.10;;;;;;;-145.18;100.00;60484.78;5058190;28;20370;-66
2021/12/06 04:27:53;;;;;;;33.83;12.57;;;;;;;-145.18;100.00;60484.78;5057027;28;20271;-66
2021/12/06 04:30:19;;;;;;;43.08;13.73;;;;;;;-145.18;100.00;60484.78;5056708;28;20924;-66
2021/12/06 04:32:45;;;;;;;35.13;13.47;;;;;;;-145.18;100.00;60484.78;5054281;28;20032;-66
2021/12/06 04:35:11;;;;;;;37.30;12.70;;;;;;;-145.18;100.00;60484.78;5055490;28;20267;-66
2021/12/06 04:37:36;;;;;;;33.00;11.30;;;;;;;-145.18;100.00;60484.78;5055410;28;20285;-66
2021/12/06 04:40:03;;;;;;;36.97;13.37;;;;;;;-145.18;100.00;60484.78;5058299;28;20506;-66
2021/12/06 04:42:29;;;;;;;37.73;13.60;;;;;;;-145.18;100.00;60484.78;5058799;28;20104;-66
2021/12/06 04:44:55;;;;;;;38.97;14.07;;;;;;;-145.18;100.00;60484.78;5056380;28;20386;-66
2021/12/06 04:47:20;;;;;;;34.57;12.00;;;;;;;-145.18;100.00;60484.78;5058451;28;20055;-66
2021/12/06 04:49:46;;;;;;;35.50;13.13;;;;;;;-145.18;100.00;60484.78;5055599;28;20036;-66
2021/12/06 04:52:14;;;;;;;33.77;12.00;;;;;;;-145.18;100.00;60484.78;5063637;28;20500;-66
2021/12/06 04:54:44;;;;;;;31.03;11.33;;;;;;;-145.18;100.00;60484.78;5054753;28;20103;-66
2021/12/06 04:57:32;;;;;;;36.67;12.87;;;;;;;-145.18;100.00;60484.78;5061897;28;20271;-66
2021/12/06 05:00:03;;;;;;;35.93;12.90;;;;;;;-145.18;100.00;60484.78;5059850;28;20278;-66
2021/12/06 05:02:33;;;;;;;35.53;11.27;;;;;;;-145.18;100.00;60484.78;5060530;28;20296;-66
2021/12/06 05:05:05;;;;;;;33.37;13.00;;;;;;;-145.18;100.00;60484.78;5058833;28;20072;-66
2021/12/06 05:07:41;;;;;;;36.70;12.60;;;;;;;-145.18;100.00;60484.78;5062210;28;20991;-66
2021/12/06 05:10:09;;;;;;;34.10;12.87;;;;;;;-145.18;100.00;60484.78;5054961;28;20089;-67
2021/12/06 05:12:35;;;;;;;37.03;14.03;;;;;;;-145.18;100.00;60484.78;5059963;28;20362;-66
2021/12/06 05:15:02;;;;;;;35.87;11.90;;;;;;;-145.18;100.00;60484.78;5061225;28;20271;-66
2021/12/06 05:17:29;;;;;;;33.73;11.37;;;;;;;-145.18;100.00;60484.78;5056307;28;20327;-66
2021/12/06 05:19:55;;;;;;;38.43;12.33;;;;;;;-145.18;100.00;60484.78;5050135;28;20612;-66
2021/12/06 05:22:21;;;;;;;33.13;12.60;;;;;;;-145.18;100.00;60484.78;5061146;28;20816;-66
2021/12/06 05:24:46;;;;;;;37.60;12.17;;;;;;;-145.18;100.00;60484.78;5059810;28;20283;-66
2021/12/06 05:27:12;;;;;;;33.67;12.13;;;;;;;-145.18;100.00;60484.78;5050376;28;20275;-66
2021/12/06 05:29:38;;;;;;;37.87;13.73;;;;;;;-145.18;100.00;60484.78;5056659;28;20032;-66
2021/12/06 05:32:04;;;;;;;33.97;12.87;;;;;;;-145.18;100.00;60484.78;5052826;28;20107;-66
2021/12/06 05:34:38;;;;;;;33.17;11.17;;;;;;;-145.18;100.00;60484.78;5054523;28;20036;-66
2021/12/06 05:37:06;;;;;;;36.17;13.40;;;;;;;-145.18;100.00;60484.78;5059370;28;20274;-66
2021/12/06 05:39:31;;;;;;;35.20;12.50;;;;;;;-145.18;100.00;60484.78;5053973;28;20328;-66
2021/12/06 05:42:03;;;;;;;36.53;12.93;;;;;;;-145.18;100.00;60484.78;5056640;28;20263;-66
2021/12/06 05:44:30;;;;;;;32.97;11.90;;;;;;;-145.18;100.00;60484.78;5060468;28;20112;-66
2021/12/06 05:46:56;;;;;;;36.60;13.70;;;;;;;-145.18;100.00;60484.78;5059221;28;20044;-66
2021/12/06 05:49:22;;;;;;;38.90;14.13;;;;;;;-145.18;100.00;60484.78;5059408;28;20270;-66
2021/12/06 05:51:48;;;;;;;35.07;13.10;;;;;;;-145.18;100.00;60484.78;5061070;28;20094;-66
2021/12/06 05:54:13;;;;;;;37.03;13.60;;;;;;;-145.18;100.00;60484.78;5060040;28;20271;-66
2021/12/06 05:56:39;;;;;;;38.57;11.63;;;;;;;-145.18;100.00;60484.78;5059516;28;20052;-66
2021/12/06 05:59:04;;;;;;;35.60;12.47;;;;;;;-145.18;100.00;60484.78;5056270;28;20405;-66
2021/12/06 06:01:30;;;;;;;39.13;13.07;;;;;;;-145.18;100.00;60484.78;5049874;28;20036;-66
2021/12/06 06:04:01;;;;;;;36.97;12.50;;;;;;;-145.18;100.00;60484.78;5055551;28;20526;-66
2021/12/06 06:06:31;;;;;;;33.13;11.43;;;;;;;-145.18;100.00;60484.78;5059988;28;20037;-66
2021/12/06 06:08:57;;;;;;;37.87;13.13;;;;;;;-145.18;100.00;60484.78;5059855;28;20619;-66
2021/12/06 06:11:23;;;;;;;37.20;12.37;;;;;;;-145.18;100.00;60484.78;5061725;28;20351;-66
2021/12/06 06:13:49;;;;;;;36.43;11.97;;;;;;;-145.18;100.00;60484.78;5060418;28;20365;-66
2021/12/06 06:16:20;;;;;;;32.87;11.93;;;;;;;-145.18;100.00;60484.78;5059716;28;20028;-66
2021/12/06 06:18:47;;;;;;;39.77;13.87;;;;;;;-145.18;100.00;60484.78;5054828;28;20504;-66
2021/12/06 06:21:12;;;;;;;37.00;13.30;;;;;;;-145.18;100.00;60484.78;5057039;28;20275;-66
2021/12/06 06:23:38;;;;;;;32.83;12.00;;;;;;;-145.18;100.00;60484.78;5055867;28;20275;-66
2021/12/06 06:26:03;;;;;;;34.33;11.97;;;;;;;-145.18;100.00;60484.78;5055470;28;20389;-66
2021/12/06 06:28:29;;;;;;;34.40;12.90;;;;;;;-145.18;100.00;60484.78;5054813;28;20032;-66
2021/12/06 06:30:55;;;;;;;37.03;13.83;;;;;;;-145.18;100.00;60484.78;5058270;28;20036;-66
2021/12/06 06:33:20;;;;;;;36.70;13.50;;;;;;;-145.18;100.00;60484.78;5053325;28;20033;-66
2021/12/06 06:35:46;;;;;;;36.30;13.73;;;;;;;-145.18;100.00;60484.78;5057477;28;20108;-66
2021/12/06 06:38:12;;;;;;;40.93;14.90;;;;;;;-145.18;100.00;60484.78;5056799;28;20135;-66
2021/12/06 06:40:38;;;;;;;38.63;13.93;;;;;;;-145.18;100.00;60484.78;5059783;28;20035;-66
2021/12/06 06:43:03;;;;;;;40.23;12.87;;;;;;;-145.18;100.00;60484.78;5050982;28;20060;-66
2021/12/06 06:45:29;;;;;;;36.53;12.80;;;;;;;-145.18;100.00;60484.78;5059241;28;20435;-66
2021/12/06 06:47:55;;;;;;;38.20;13.27;;;;;;;-145.18;100.00;60484.78;5053459;28;20047;-67
2021/12/06 06:50:21;;;;;;;26.70;9.67;;;;;;;-145.18;100.00;60484.78;5059405;28;20036;-66
2021/12/06 06:52:49;;;;;;;39.33;13.07;;;;;;;-145.18;100.00;60484.78;5060694;28;20519;-66
2021/12/06 06:55:15;;;;;;;35.03;10.87;;;;;;;-145.18;100.00;60484.78;5060583;28;20314;-66
2021/12/06 06:57:43;;;;;;;34.77;11.30;;;;;;;-145.18;100.00;60484.78;5048700;28;20279;-66
2021/12/06 07:00:12;;;;;;;34.33;11.83;;;;;;;-145.18;100.00;60484.78;5051970;28;20323;-66
2021/12/06 07:02:38;;;;;;;40.10;13.07;;;;;;;-145.18;100.00;60484.78;5052774;28;20302;-66
2021/12/06 07:05:05;;;;;;;42.73;13.30;;;;;;;-145.18;100.00;60484.78;5052775;28;20717;-66
2021/12/06 07:07:31;;;;;;;42.50;13.17;;;;;;;-145.18;100.00;60484.78;5057342;28;20542;-66
2021/12/06 07:09:57;;;;;;;39.03;13.40;;;;;;;-145.18;100.00;60484.78;5060732;28;20270;-66
2021/12/06 07:12:23;;;;;;;44.70;14.13;;;;;;;-145.18;100.00;60484.78;5060970;28;20037;-66
2021/12/06 07:14:49;;;;;;;42.03;12.70;;;;;;;-145.18;100.00;60484.78;5059448;28;21004;-66
2021/12/06 07:17:15;;;;;;;39.83;13.10;;;;;;;-145.18;100.00;60484.78;5060666;28;20059;-66
2021/12/06 07:19:41;;;;;;;41.17;13.23;;;;;;;-145.18;100.00;60484.78;5057177;28;20037;-66
2021/12/06 07:22:07;;;;;;;41.87;13.33;;;;;;;-145.18;100.00;60484.78;5053474;28;20396;-66
2021/12/06 07:24:32;;;;;;;34.53;12.00;;;;;;;-145.18;100.00;60484.78;5061124;28;20093;-66
2021/12/06 07:26:58;;;;;;;40.33;12.63;;;;;;;-145.18;100.00;60484.78;5060817;28;20041;-66
2021/12/06 07:29:24;;;;;;;34.63;10.80;;;;;;;-145.18;100.00;60484.78;5049209;28;20538;-66
2021/12/06 07:31:50;;;;;;;44.10;14.10;;;;;;;-145.18;100.00;60484.78;5055412;28;20044;-66
2021/12/06 07:34:15;;;;;;;39.47;12.10;;;;;;;-145.18;100.00;60484.78;5060879;28;20297;-66
2021/12/06 07:36:41;;;;;;;36.47;11.37;;;;;;;-145.18;100.00;60484.78;5060907;28;20346;-66
2021/12/06 07:39:07;;;;;;;37.77;12.43;;;;;;;-145.18;100.00;60484.78;5055310;28;20059;-66
2021/12/06 07:41:33;;;;;;;38.30;12.63;;;;;;;-145.18;100.00;60484.78;5054495;28;20032;-66
2021/12/06 07:43:59;;;;;;;39.93;12.30;;;;;;;-145.18;100.00;60484.78;5054137;28;20270;-66
2021/12/06 07:46:25;;;;;;;40.70;14.17;;;;;;;-145.18;100.00;60484.78;5057963;28;20190;-66
2021/12/06 07:48:52;;;;;;;40.13;13.27;;;;;;;-145.18;100.00;60484.78;5060924;28;20035;-66
2021/12/06 07:51:23;;;;;;;33.77;11.90;;;;;;;-145.18;100.00;60484.78;5056831;28;20036;-66
2021/12/06 07:53:49;;;;;;;37.87;12.00;;;;;;;-145.18;100.00;60484.78;5047954;28;20269;-66
2021/12/06 07:56:14;;;;;;;37.53;13.60;;;;;;;-145.18;100.00;60484.78;5060470;28;20342;-66
2021/12/06 07:58:40;;;;;;;42.13;12.70;;;;;;;-145.18;100.00;60484.78;5054697;28;20040;-66
2021/12/06 08:01:06;;;;;;;35.10;12.50;;;;;;;-145.18;100.00;60484.78;5062727;28;20055;-66
2021/12/06 08:03:31;;;;;;;40.63;12.67;;;;;;;-145.18;100.00;60484.78;5049573;28;20052;-66
2021/12/06 08:05:58;;;;;;;36.60;12.00;;;;;;;-145.18;100.00;60484.78;5064120;28;20032;-66
2021/12/06 08:08:27;;;;;;;40.70;12.40;;;;;;;-145.18;100.00;60484.78;5052105;28;20039;-66
2021/12/06 08:11:05;;;;;;;39.83;12.20;;;;;;;-145.18;100.00;60484.78;5057501;28;20263;-66
2021/12/06 08:13:33;;;;;;;40.90;12.17;;;;;;;-145.18;100.00;60484.78;5064145;28;20275;-66
2021/12/06 08:16:02;;;;;;;36.70;11.17;;;;;;;-145.18;100.00;60484.78;5050723;28;20270;-66
2021/12/06 08:18:28;;;;;;;36.97;11.70;;;;;;;-145.18;100.00;60484.78;5059082;28;20281;-66
2021/12/06 08:20:56;;;;;;;37.57;13.03;;;;;;;-145.18;100.00;60484.78;5063937;28;20267;-66
2021/12/06 08:23:22;;;;;;;33.87;10.27;;;;;;;-145.18;100.00;60484.78;5062701;28;20039;-66
2021/12/06 08:25:49;;;;;;;37.10;13.47;;;;;;;-145.18;100.00;60484.78;5061812;28;20286;-66
2021/12/06 08:28:16;;;;;;;35.63;12.70;;;;;;;-145.18;100.00;60484.78;5063745;28;20270;-66
2021/12/06 08:30:42;;;;;;;43.63;13.17;;;;;;;-145.18;100.00;60484.78;5063675;28;20362;-66
2021/12/06 08:33:07;;;;;;;45.57;13.77;;;;;;;-145.18;100.00;60484.78;5063304;28;20350;-66
2021/12/06 08:35:40;;;;;;;32.20;10.70;;;;;;;-145.18;100.00;60484.78;5063869;28;20104;-66
2021/12/06 08:38:07;;;;;;;38.53;10.95;;;;;;;-145.18;100.00;60484.78;5068306;28;20033;-66
2021/12/06 08:40:36;;;;;;;34.53;11.17;;;;;;;-145.18;100.00;60484.78;5061357;28;20052;-66
2021/12/06 08:43:02;;;;;;;38.63;12.17;;;;;;;-145.18;100.00;60484.78;5062956;28;20297;-66
2021/12/06 08:45:29;;;;;;;40.07;11.27;;;;;;;-145.18;100.00;60484.78;5063486;28;20749;-66
2021/12/06 08:47:55;;;;;;;36.03;10.83;;;;;;;-145.18;100.00;60484.78;5063290;28;20029;-66
2021/12/06 08:50:25;;;;;;;39.80;12.67;;;;;;;-145.18;100.00;60484.78;5060318;28;20890;-66
2021/12/06 08:52:53;;;;;;;37.47;12.33;;;;;;;-145.18;100.00;60484.78;5063192;28;20930;-66
2021/12/06 08:55:19;;;;;;;35.20;11.37;;;;;;;-145.18;100.00;60484.78;5063172;28;20289;-66
2021/12/06 08:57:46;;;;;;;43.37;12.90;;;;;;;-145.18;100.00;60484.78;5062722;28;20279;-66
2021/12/06 09:00:17;;;;;;;40.13;13.93;;;;;;;-145.18;100.00;60484.78;5063259;28;20267;-66
2021/12/06 09:02:43;;;;;;;33.50;10.53;;;;;;;-145.18;100.00;60484.78;5048175;28;20284;-66
2021/12/06 09:05:09;;;;;;;37.00;12.50;;;;;;;-145.18;100.00;60484.78;5059129;28;20290;-66
2021/12/06 09:07:34;;;;;;;36.60;11.93;;;;;;;-145.18;100.00;60484.78;5062910;28;20505;-66
2021/12/06 09:10:00;;;;;;;39.23;12.27;;;;;;;-145.18;100.00;60484.78;5063117;28;20262;-66
2021/12/06 09:12:28;;;;;;;38.97;13.27;;;;;;;-145.18;100.00;60484.78;5060965;28;20085;-66
2021/12/06 09:14:58;;;;;;;46.80;14.00;;;;;;;-145.18;100.00;60484.78;5062487;28;20366;-66
2021/12/06 09:17:24;;;;;;;34.10;11.50;;;;;;;-145.18;100.00;60484.78;5062561;28;20262;-66
2021/12/06 09:19:50;;;;;;;35.37;11.63;;;;;;;-145.18;100.00;60484.78;5062825;28;20448;-66
2021/12/06 09:22:17;;;;;;;41.57;13.53;;;;;;;-145.18;100.00;60484.78;5062218;28;20056;-66
2021/12/06 09:24:43;;;;;;;43.03;14.43;;;;;;;-145.18;100.00;60484.78;5061868;28;20671;-66
2021/12/06 09:27:09;;;;;;;41.73;12.63;;;;;;;-145.18;100.00;60484.78;5062703;28;20262;-66
2021/12/06 09:29:36;;;;;;;45.43;12.50;;;;;;;-145.18;100.00;60484.78;5062191;28;20029;-66
2021/12/06 09:32:05;;;;;;;39.60;12.63;;;;;;;-145.18;100.00;60484.78;5062463;28;20263;-66
2021/12/06 09:34:31;;;;;;;43.63;14.07;;;;;;;-145.18;100.00;60484.78;5056670;28;20770;-66
2021/12/06 09:36:59;;;;;;;39.37;13.03;;;;;;;-145.18;100.00;60484.78;5053034;28;20258;-66
2021/12/06 09:39:25;;;;;;;43.73;12.17;;;;;;;-145.18;100.00;60484.78;5061958;28;20298;-68
2021/12/06 09:41:51;;;;;;;40.83;13.50;;;;;;;-145.18;100.00;60484.78;5062476;28;20314;-66
2021/12/06 09:44:17;;;;;;;36.03;11.13;;;;;;;-145.18;100.00;60484.78;5061895;28;20270;-66
2021/12/06 09:46:43;;;;;;;37.60;10.17;;;;;;;-145.18;100.00;60484.78;5062320;28;20269;-66
2021/12/06 09:49:12;;;;;;;43.23;12.40;;;;;;;-145.18;100.00;60484.78;5049210;28;20545;-66
2021/12/06 09:51:40;;;;;;;37.37;12.40;;;;;;;-145.18;100.00;60484.78;5054457;28;20067;-66
2021/12/06 09:54:08;;;;;;;36.27;11.07;;;;;;;-145.18;100.00;60484.78;5060154;28;20274;-66
2021/12/06 09:56:39;;;;;;;28.77;9.50;;;;;;;-145.18;100.00;60484.78;5062164;28;20340;-66
2021/12/06 09:59:09;;;;;;;32.93;10.70;;;;;;;-145.18;100.00;60484.78;5062176;28;20259;-66
2021/12/06 10:01:40;;;;;;;31.67;11.10;;;;;;;-145.18;100.00;60484.78;5061712;28;20801;-67
2021/12/06 10:04:09;;;;;;;28.73;11.07;;;;;;;-145.18;100.00;60484.78;5052791;28;20299;-66
2021/12/06 10:06:35;;;;;;;33.63;9.97;;;;;;;-145.18;100.00;60484.78;5061851;28;20794;-66
2021/12/06 10:09:05;;;;;;;31.43;10.07;;;;;;;-145.18;100.00;60484.78;5061553;28;21078;-66
2021/12/06 10:11:30;;;;;;;34.80;11.00;;;;;;;-145.18;100.00;60484.78;5061549;28;20366;-66
2021/12/06 10:13:56;;;;;;;35.10;10.60;;;;;;;-145.18;100.00;60484.78;5062144;28;20346;-66
2021/12/06 10:16:22;;;;;;;40.63;11.53;;;;;;;-145.18;100.00;60484.78;5061203;28;20027;-66
2021/12/06 10:18:49;;;;;;;33.33;10.73;;;;;;;-145.18;100.00;60484.78;5061999;28;20031;-66
2021/12/06 10:21:16;;;;;;;37.87;12.00;;;;;;;-145.18;100.00;60484.78;5060913;28;20266;-66
2021/12/06 10:23:43;;;;;;;31.40;10.10;;;;;;;-145.18;100.00;60484.78;5061368;28;20588;-66
2021/12/06 10:26:11;;;;;;;36.47;10.50;;;;;;;-145.18;100.00;60484.78;5060686;28;20286;-66
2021/12/06 10:28:39;;;;;;;35.17;12.03;;;;;;;-145.18;100.00;60484.78;5061650;28;20263;-68
2021/12/06 10:31:06;;;;;;;34.93;11.03;;;;;;;-145.18;100.00;60484.78;5061311;28;20266;-68
2021/12/06 10:33:34;;;;;;;36.87;10.73;;;;;;;-145.18;100.00;60484.78;5053867;28;20297;-66
2021/12/06 10:36:06;;;;;;;33.40;11.20;;;;;;;-145.18;100.00;60484.78;5055979;28;20316;-66
2021/12/06 10:38:36;;;;;;;34.55;10.93;;;;;;;-145.18;100.00;60484.78;5058835;28;20266;-66
2021/12/06 10:41:16;;;;;;;29.97;10.27;;;;;;;-145.18;100.00;60484.78;5061431;28;20034;-66
2021/12/06 10:43:51;;;;;;;33.20;10.67;;;;;;;-145.18;100.00;60484.78;5061670;28;20305;-66
2021/12/06 10:46:17;;;;;;;33.87;11.77;;;;;;;-145.18;100.00;60484.78;5060904;28;20992;-67
2021/12/06 10:48:43;;;;;;;37.60;10.67;;;;;;;-145.18;100.00;60484.78;5060977;28;20659;-67
2021/12/06 10:51:12;;;;;;;36.17;11.63;;;;;;;-145.18;100.00;60484.78;5059880;28;20291;-67
2021/12/06 10:53:58;;;;;;;36.80;12.20;;;;;;;-145.18;100.00;60484.78;5061407;28;20465;-67
2021/12/06 10:56:32;;;;;;;35.60;11.87;;;;;;;-145.18;100.00;60484.78;5061111;28;20278;-67
2021/12/06 10:59:04;;;;;;;39.57;12.23;;;;;;;-145.18;100.00;60484.78;5061095;28;20301;-67
2021/12/06 11:01:32;;;;;;;38.65;13.20;;;;;;;-145.18;100.00;60484.78;5060680;28;20393;-67
2021/12/06 11:04:00;;;;;;;40.53;12.10;;;;;;;-145.18;100.00;60484.78;5060498;28;20048;-67
2021/12/06 11:06:41;;;;;;;37.73;12.47;;;;;;;-145.18;100.00;60484.78;5061338;28;20821;-67